sensor_id;sensor_type;location;lat;lon;timestamp;pressure;altitude;pressure_sealevel;temperature;humidity
48926;BME280;39838;59.938;30.642;2022-07-23T00:02:26;100521.66;;;20.24;69.42
48926;BME280;39838;59.938;30.642;2022-07-23T00:04:54;100522.75;;;20.18;69.40
48926;BME280;39838;59.938;30.642;2022-07-23T00:07:21;100524.59;;;20.16;69.73
48926;BME280;39838;59.938;30.642;2022-07-23T00:09:48;100524.75;;;20.13;69.80
48926;BME280;39838;59.938;30.642;2022-07-23T00:12:15;100521.28;;;20.11;69.94
48926;BME280;39838;59.938;30.642;2022-07-23T00:14:43;100519.56;;;20.10;70.15
48926;BME280;39838;59.938;30.642;2022-07-23T00:17:10;100516.16;;;20.08;70.02
48926;BME280;39838;59.938;30.642;2022-07-23T00:19:37;100519.81;;;20.04;70.27
48926;BME280;39838;59.938;30.642;2022-07-23T00:22:05;100522.69;;;19.98;70.39
48926;BME280;39838;59.938;30.642;2022-07-23T00:24:33;100523.59;;;19.97;70.54
48926;BME280;39838;59.938;30.642;2022-07-23T00:27:00;100529.72;;;19.98;70.52
48926;BME280;39838;59.938;30.642;2022-07-23T00:29:27;100524.53;;;19.96;70.50
48926;BME280;39838;59.938;30.642;2022-07-23T00:31:54;100522.03;;;19.93;70.65
48926;BME280;39838;59.938;30.642;2022-07-23T00:34:21;100527.38;;;19.90;70.77
48926;BME280;39838;59.938;30.642;2022-07-23T00:36:48;100527.53;;;19.87;70.97
48926;BME280;39838;59.938;30.642;2022-07-23T00:39:16;100532.09;;;19.82;71.06
48926;BME280;39838;59.938;30.642;2022-07-23T00:41:43;100529.53;;;19.80;71.46
48926;BME280;39838;59.938;30.642;2022-07-23T00:44:15;100526.13;;;19.77;71.35
48926;BME280;39838;59.938;30.642;2022-07-23T00:46:45;100536.69;;;19.77;71.65
48926;BME280;39838;59.938;30.642;2022-07-23T00:49:12;100540.16;;;19.77;71.52
48926;BME280;39838;59.938;30.642;2022-07-23T00:51:40;100539.31;;;19.77;71.50
48926;BME280;39838;59.938;30.642;2022-07-23T00:54:07;100535.09;;;19.73;71.60
48926;BME280;39838;59.938;30.642;2022-07-23T00:56:35;100533.41;;;19.70;72.06
48926;BME280;39838;59.938;30.642;2022-07-23T00:59:03;100528.28;;;19.67;71.99
48926;BME280;39838;59.938;30.642;2022-07-23T01:01:30;100536.19;;;19.67;72.13
48926;BME280;39838;59.938;30.642;2022-07-23T01:03:57;100536.25;;;19.66;72.17
48926;BME280;39838;59.938;30.642;2022-07-23T01:06:24;100540.59;;;19.67;72.38
48926;BME280;39838;59.938;30.642;2022-07-23T01:08:51;100533.59;;;19.66;72.30
48926;BME280;39838;59.938;30.642;2022-07-23T01:11:19;100532.84;;;19.62;72.46
48926;BME280;39838;59.938;30.642;2022-07-23T01:13:48;100534.75;;;19.58;72.64
48926;BME280;39838;59.938;30.642;2022-07-23T01:16:18;100535.72;;;19.54;73.03
48926;BME280;39838;59.938;30.642;2022-07-23T01:18:45;100537.56;;;19.52;73.02
48926;BME280;39838;59.938;30.642;2022-07-23T01:21:13;100534.00;;;19.53;73.27
48926;BME280;39838;59.938;30.642;2022-07-23T01:23:42;100540.19;;;19.52;73.16
48926;BME280;39838;59.938;30.642;2022-07-23T01:26:09;100538.50;;;19.51;73.28
48926;BME280;39838;59.938;30.642;2022-07-23T01:28:36;100529.75;;;19.49;73.55
48926;BME280;39838;59.938;30.642;2022-07-23T01:31:03;100529.75;;;19.49;73.35
48926;BME280;39838;59.938;30.642;2022-07-23T01:33:30;100527.03;;;19.52;73.52
48926;BME280;39838;59.938;30.642;2022-07-23T01:35:57;100528.84;;;19.50;73.47
48926;BME280;39838;59.938;30.642;2022-07-23T01:38:24;100527.19;;;19.48;73.63
48926;BME280;39838;59.938;30.642;2022-07-23T01:40:53;100525.41;;;19.48;73.72
48926;BME280;39838;59.938;30.642;2022-07-23T01:43:20;100518.28;;;19.50;73.81
48926;BME280;39838;59.938;30.642;2022-07-23T01:45:47;100516.59;;;19.49;73.97
48926;BME280;39838;59.938;30.642;2022-07-23T01:48:14;100526.25;;;19.49;73.96
48926;BME280;39838;59.938;30.642;2022-07-23T01:50:42;100519.34;;;19.46;74.17
48926;BME280;39838;59.938;30.642;2022-07-23T01:53:09;100521.19;;;19.44;74.05
48926;BME280;39838;59.938;30.642;2022-07-23T01:55:36;100516.00;;;19.41;74.03
48926;BME280;39838;59.938;30.642;2022-07-23T01:58:05;100518.63;;;19.41;74.06
48926;BME280;39838;59.938;30.642;2022-07-23T02:00:32;100508.00;;;19.44;74.15
48926;BME280;39838;59.938;30.642;2022-07-23T02:02:59;100515.78;;;19.47;73.97
48926;BME280;39838;59.938;30.642;2022-07-23T02:05:26;100514.78;;;19.51;73.95
48926;BME280;39838;59.938;30.642;2022-07-23T02:07:54;100512.81;;;19.56;73.78
48926;BME280;39838;59.938;30.642;2022-07-23T02:10:22;100511.94;;;19.56;74.02
48926;BME280;39838;59.938;30.642;2022-07-23T02:12:49;100514.56;;;19.57;73.81
48926;BME280;39838;59.938;30.642;2022-07-23T02:15:17;100510.28;;;19.53;73.83
48926;BME280;39838;59.938;30.642;2022-07-23T02:17:44;100498.97;;;19.51;73.91
48926;BME280;39838;59.938;30.642;2022-07-23T02:20:11;100502.41;;;19.53;73.98
48926;BME280;39838;59.938;30.642;2022-07-23T02:22:39;100497.91;;;19.55;74.14
48926;BME280;39838;59.938;30.642;2022-07-23T02:25:07;100501.41;;;19.56;73.92
48926;BME280;39838;59.938;30.642;2022-07-23T02:27:34;100496.13;;;19.56;74.16
48926;BME280;39838;59.938;30.642;2022-07-23T02:30:02;100496.94;;;19.59;74.08
48926;BME280;39838;59.938;30.642;2022-07-23T02:32:31;100494.22;;;19.61;74.02
48926;BME280;39838;59.938;30.642;2022-07-23T02:34:58;100497.66;;;19.63;73.97
48926;BME280;39838;59.938;30.642;2022-07-23T02:37:25;100495.88;;;19.63;73.94
48926;BME280;39838;59.938;30.642;2022-07-23T02:39:53;100488.72;;;19.67;73.89
48926;BME280;39838;59.938;30.642;2022-07-23T02:42:20;100497.34;;;19.72;73.79
48926;BME280;39838;59.938;30.642;2022-07-23T02:44:49;100491.88;;;19.77;73.81
48926;BME280;39838;59.938;30.642;2022-07-23T02:47:16;100486.50;;;19.80;73.57
48926;BME280;39838;59.938;30.642;2022-07-23T02:49:45;100489.81;;;19.85;73.57
48926;BME280;39838;59.938;30.642;2022-07-23T02:52:12;100482.53;;;19.92;73.25
48926;BME280;39838;59.938;30.642;2022-07-23T02:54:39;100479.59;;;19.99;73.01
48926;BME280;39838;59.938;30.642;2022-07-23T02:57:06;100479.38;;;20.05;72.98
48926;BME280;39838;59.938;30.642;2022-07-23T02:59:33;100471.38;;;20.07;72.94
48926;BME280;39838;59.938;30.642;2022-07-23T03:02:00;100464.25;;;20.09;72.68
48926;BME280;39838;59.938;30.642;2022-07-23T03:04:27;100463.25;;;20.11;72.68
48926;BME280;39838;59.938;30.642;2022-07-23T03:06:55;100459.78;;;20.11;72.79
48926;BME280;39838;59.938;30.642;2022-07-23T03:09:22;100464.09;;;20.13;72.77
48926;BME280;39838;59.938;30.642;2022-07-23T03:11:50;100462.31;;;20.14;72.62
48926;BME280;39838;59.938;30.642;2022-07-23T03:14:17;100456.97;;;20.15;72.44
48926;BME280;39838;59.938;30.642;2022-07-23T03:16:44;100453.16;;;20.23;72.41
48926;BME280;39838;59.938;30.642;2022-07-23T03:19:11;100458.25;;;20.27;72.33
48926;BME280;39838;59.938;30.642;2022-07-23T03:21:38;100458.88;;;20.34;72.13
48926;BME280;39838;59.938;30.642;2022-07-23T03:24:08;100451.81;;;20.34;72.05
48926;BME280;39838;59.938;30.642;2022-07-23T03:26:36;100448.06;;;20.40;71.93
48926;BME280;39838;59.938;30.642;2022-07-23T03:29:03;100446.09;;;20.45;71.95
48926;BME280;39838;59.938;30.642;2022-07-23T03:31:30;100426.59;;;20.49;71.69
48926;BME280;39838;59.938;30.642;2022-07-23T03:33:58;100437.75;;;20.56;71.67
48926;BME280;39838;59.938;30.642;2022-07-23T03:36:25;100431.47;;;20.58;71.56
48926;BME280;39838;59.938;30.642;2022-07-23T03:38:52;100433.06;;;20.62;71.50
48926;BME280;39838;59.938;30.642;2022-07-23T03:41:21;100427.63;;;20.65;71.48
48926;BME280;39838;59.938;30.642;2022-07-23T03:43:48;100430.94;;;20.70;71.56
48926;BME280;39838;59.938;30.642;2022-07-23T03:46:15;100427.19;;;20.76;71.19
48926;BME280;39838;59.938;30.642;2022-07-23T03:48:42;100433.22;;;20.80;71.15
48926;BME280;39838;59.938;30.642;2022-07-23T03:51:10;100428.78;;;20.80;71.07
48926;BME280;39838;59.938;30.642;2022-07-23T03:53:37;100421.66;;;20.82;71.15
48926;BME280;39838;59.938;30.642;2022-07-23T03:56:04;100426.06;;;20.82;71.20
48926;BME280;39838;59.938;30.642;2022-07-23T03:58:33;100419.94;;;20.81;71.13
48926;BME280;39838;59.938;30.642;2022-07-23T04:01:00;100414.44;;;20.86;71.13
48926;BME280;39838;59.938;30.642;2022-07-23T04:03:27;100409.81;;;20.91;71.02
48926;BME280;39838;59.938;30.642;2022-07-23T04:05:54;100412.25;;;20.95;71.09
48926;BME280;39838;59.938;30.642;2022-07-23T04:08:21;100408.53;;;20.99;71.07
48926;BME280;39838;59.938;30.642;2022-07-23T04:10:48;100396.94;;;21.04;70.87
48926;BME280;39838;59.938;30.642;2022-07-23T04:13:15;100403.84;;;21.06;70.71
48926;BME280;39838;59.938;30.642;2022-07-23T04:15:44;100411.44;;;21.14;70.48
48926;BME280;39838;59.938;30.642;2022-07-23T04:18:11;100408.47;;;21.21;70.35
48926;BME280;39838;59.938;30.642;2022-07-23T04:20:38;100394.06;;;21.29;70.13
48926;BME280;39838;59.938;30.642;2022-07-23T04:23:05;100395.59;;;21.34;69.93
48926;BME280;39838;59.938;30.642;2022-07-23T04:25:32;100389.41;;;21.34;70.01
48926;BME280;39838;59.938;30.642;2022-07-23T04:27:59;100391.16;;;21.35;70.02
48926;BME280;39838;59.938;30.642;2022-07-23T04:30:27;100398.00;;;21.39;69.88
48926;BME280;39838;59.938;30.642;2022-07-23T04:32:55;100404.50;;;21.50;69.63
48926;BME280;39838;59.938;30.642;2022-07-23T04:35:22;100404.78;;;21.63;69.44
48926;BME280;39838;59.938;30.642;2022-07-23T04:37:49;100395.47;;;21.73;69.19
48926;BME280;39838;59.938;30.642;2022-07-23T04:40:17;100390.75;;;21.80;68.99
48926;BME280;39838;59.938;30.642;2022-07-23T04:42:44;100386.19;;;21.84;68.70
48926;BME280;39838;59.938;30.642;2022-07-23T04:45:11;100377.56;;;21.97;68.35
48926;BME280;39838;59.938;30.642;2022-07-23T04:47:38;100383.16;;;22.10;67.96
48926;BME280;39838;59.938;30.642;2022-07-23T04:50:07;100371.16;;;22.20;67.69
48926;BME280;39838;59.938;30.642;2022-07-23T04:52:34;100364.63;;;22.27;67.09
48926;BME280;39838;59.938;30.642;2022-07-23T04:55:01;100367.81;;;22.34;67.11
48926;BME280;39838;59.938;30.642;2022-07-23T04:57:29;100365.97;;;22.36;66.94
48926;BME280;39838;59.938;30.642;2022-07-23T04:59:56;100369.41;;;22.38;66.95
48926;BME280;39838;59.938;30.642;2022-07-23T05:02:23;100363.63;;;22.47;66.43
48926;BME280;39838;59.938;30.642;2022-07-23T05:04:50;100356.94;;;22.57;66.24
48926;BME280;39838;59.938;30.642;2022-07-23T05:07:18;100348.72;;;22.62;65.72
48926;BME280;39838;59.938;30.642;2022-07-23T05:09:46;100347.72;;;22.65;65.45
48926;BME280;39838;59.938;30.642;2022-07-23T05:12:13;100355.19;;;22.74;65.24
48926;BME280;39838;59.938;30.642;2022-07-23T05:14:40;100357.28;;;22.84;64.74
48926;BME280;39838;59.938;30.642;2022-07-23T05:17:07;100350.75;;;22.92;64.62
48926;BME280;39838;59.938;30.642;2022-07-23T05:19:34;100341.84;;;22.93;64.71
48926;BME280;39838;59.938;30.642;2022-07-23T05:22:01;100349.88;;;22.91;64.50
48926;BME280;39838;59.938;30.642;2022-07-23T05:24:30;100343.78;;;22.89;64.44
48926;BME280;39838;59.938;30.642;2022-07-23T05:26:57;100342.47;;;22.98;64.72
48926;BME280;39838;59.938;30.642;2022-07-23T05:29:24;100342.16;;;23.04;64.59
48926;BME280;39838;59.938;30.642;2022-07-23T05:31:51;100337.50;;;23.07;64.17
48926;BME280;39838;59.938;30.642;2022-07-23T05:34:18;100333.69;;;23.13;63.79
48926;BME280;39838;59.938;30.642;2022-07-23T05:36:45;100335.25;;;23.17;63.67
48926;BME280;39838;59.938;30.642;2022-07-23T05:39:14;100337.47;;;23.25;63.60
48926;BME280;39838;59.938;30.642;2022-07-23T05:41:42;100336.75;;;23.37;63.30
48926;BME280;39838;59.938;30.642;2022-07-23T05:44:10;100338.06;;;23.46;62.90
48926;BME280;39838;59.938;30.642;2022-07-23T05:46:37;100328.06;;;23.51;62.76
48926;BME280;39838;59.938;30.642;2022-07-23T05:49:04;100326.78;;;23.58;62.78
48926;BME280;39838;59.938;30.642;2022-07-23T05:51:31;100326.44;;;23.64;62.66
48926;BME280;39838;59.938;30.642;2022-07-23T05:53:58;100317.03;;;23.58;62.55
48926;BME280;39838;59.938;30.642;2022-07-23T05:56:25;100313.53;;;23.58;62.54
48926;BME280;39838;59.938;30.642;2022-07-23T05:58:53;100319.75;;;23.57;62.46
48926;BME280;39838;59.938;30.642;2022-07-23T06:01:21;100318.88;;;23.56;62.52
48926;BME280;39838;59.938;30.642;2022-07-23T06:03:48;100320.63;;;23.57;62.18
48926;BME280;39838;59.938;30.642;2022-07-23T06:06:15;100320.38;;;23.62;62.16
48926;BME280;39838;59.938;30.642;2022-07-23T06:08:42;100318.31;;;23.67;62.11
48926;BME280;39838;59.938;30.642;2022-07-23T06:11:09;100312.75;;;23.72;62.12
48926;BME280;39838;59.938;30.642;2022-07-23T06:13:36;100300.34;;;23.72;62.38
48926;BME280;39838;59.938;30.642;2022-07-23T06:16:05;100303.16;;;23.85;61.94
48926;BME280;39838;59.938;30.642;2022-07-23T06:18:32;100304.91;;;24.00;62.11
48926;BME280;39838;59.938;30.642;2022-07-23T06:20:59;100306.00;;;24.12;61.52
48926;BME280;39838;59.938;30.642;2022-07-23T06:23:26;100293.28;;;24.17;61.46
48926;BME280;39838;59.938;30.642;2022-07-23T06:25:53;100280.44;;;24.25;61.65
48926;BME280;39838;59.938;30.642;2022-07-23T06:28:20;100286.91;;;24.35;61.56
48926;BME280;39838;59.938;30.642;2022-07-23T06:30:47;100284.63;;;24.43;61.32
48926;BME280;39838;59.938;30.642;2022-07-23T06:33:16;100275.34;;;24.50;61.13
48926;BME280;39838;59.938;30.642;2022-07-23T06:35:43;100280.19;;;24.58;60.18
48926;BME280;39838;59.938;30.642;2022-07-23T06:38:10;100280.75;;;24.63;59.81
48926;BME280;39838;59.938;30.642;2022-07-23T06:40:38;100281.97;;;24.72;59.23
48926;BME280;39838;59.938;30.642;2022-07-23T06:43:05;100282.00;;;24.86;58.94
48926;BME280;39838;59.938;30.642;2022-07-23T06:45:32;100268.63;;;24.88;58.49
48926;BME280;39838;59.938;30.642;2022-07-23T06:47:59;100267.28;;;24.95;58.43
48926;BME280;39838;59.938;30.642;2022-07-23T06:50:29;100276.56;;;25.02;58.01
48926;BME280;39838;59.938;30.642;2022-07-23T06:52:56;100271.91;;;25.05;57.92
48926;BME280;39838;59.938;30.642;2022-07-23T06:55:23;100267.00;;;25.14;57.78
48926;BME280;39838;59.938;30.642;2022-07-23T06:57:50;100268.19;;;25.22;57.50
48926;BME280;39838;59.938;30.642;2022-07-23T07:00:18;100273.47;;;25.37;57.21
48926;BME280;39838;59.938;30.642;2022-07-23T07:02:45;100259.16;;;25.52;56.89
48926;BME280;39838;59.938;30.642;2022-07-23T07:05:12;100258.66;;;25.59;56.19
48926;BME280;39838;59.938;30.642;2022-07-23T07:07:40;100250.66;;;25.59;56.03
48926;BME280;39838;59.938;30.642;2022-07-23T07:10:08;100252.47;;;25.59;55.52
48926;BME280;39838;59.938;30.642;2022-07-23T07:12:35;100250.66;;;25.59;55.26
48926;BME280;39838;59.938;30.642;2022-07-23T07:15:03;100249.75;;;25.61;55.24
48926;BME280;39838;59.938;30.642;2022-07-23T07:17:30;100248.78;;;25.62;54.85
48926;BME280;39838;59.938;30.642;2022-07-23T07:19:57;100247.94;;;25.61;55.32
48926;BME280;39838;59.938;30.642;2022-07-23T07:22:24;100247.59;;;25.66;54.90
48926;BME280;39838;59.938;30.642;2022-07-23T07:24:52;100254.81;;;25.78;55.03
48926;BME280;39838;59.938;30.642;2022-07-23T07:27:19;100246.41;;;25.84;53.85
48926;BME280;39838;59.938;30.642;2022-07-23T07:29:47;100239.94;;;25.88;53.79
48926;BME280;39838;59.938;30.642;2022-07-23T07:32:14;100240.88;;;25.87;53.37
48926;BME280;39838;59.938;30.642;2022-07-23T07:34:41;100242.94;;;25.96;53.64
48926;BME280;39838;59.938;30.642;2022-07-23T07:37:08;100239.75;;;26.04;53.56
48926;BME280;39838;59.938;30.642;2022-07-23T07:39:35;100244.00;;;26.19;53.44
48926;BME280;39838;59.938;30.642;2022-07-23T07:42:04;100233.38;;;26.32;53.27
48926;BME280;39838;59.938;30.642;2022-07-23T07:44:31;100242.13;;;26.47;53.08
48926;BME280;39838;59.938;30.642;2022-07-23T07:46:58;100232.97;;;26.51;52.42
48926;BME280;39838;59.938;30.642;2022-07-23T07:49:25;100226.25;;;26.58;52.11
48926;BME280;39838;59.938;30.642;2022-07-23T07:51:52;100231.25;;;26.62;52.23
48926;BME280;39838;59.938;30.642;2022-07-23T07:54:19;100238.78;;;26.68;51.63
48926;BME280;39838;59.938;30.642;2022-07-23T07:56:46;100232.28;;;26.73;50.74
48926;BME280;39838;59.938;30.642;2022-07-23T07:59:15;100229.63;;;26.73;50.30
48926;BME280;39838;59.938;30.642;2022-07-23T08:01:42;100240.06;;;26.76;50.25
48926;BME280;39838;59.938;30.642;2022-07-23T08:04:09;100236.75;;;26.85;50.73
48926;BME280;39838;59.938;30.642;2022-07-23T08:06:36;100234.69;;;26.88;50.52
48926;BME280;39838;59.938;30.642;2022-07-23T08:09:06;100235.84;;;26.97;50.30
48926;BME280;39838;59.938;30.642;2022-07-23T08:11:33;100235.63;;;27.00;49.87
48926;BME280;39838;59.938;30.642;2022-07-23T08:14:00;100240.31;;;27.09;50.31
48926;BME280;39838;59.938;30.642;2022-07-23T08:16:28;100228.47;;;27.13;50.10
48926;BME280;39838;59.938;30.642;2022-07-23T08:18:55;100229.00;;;27.18;49.40
48926;BME280;39838;59.938;30.642;2022-07-23T08:21:22;100228.88;;;27.20;49.08
48926;BME280;39838;59.938;30.642;2022-07-23T08:23:50;100232.91;;;27.26;49.32
48926;BME280;39838;59.938;30.642;2022-07-23T08:26:17;100218.88;;;27.35;49.02
48926;BME280;39838;59.938;30.642;2022-07-23T08:28:44;100213.94;;;27.41;48.99
48926;BME280;39838;59.938;30.642;2022-07-23T08:31:11;100220.41;;;27.50;49.09
48926;BME280;39838;59.938;30.642;2022-07-23T08:33:39;100225.78;;;27.61;49.24
48926;BME280;39838;59.938;30.642;2022-07-23T08:36:07;100224.91;;;27.73;48.98
48926;BME280;39838;59.938;30.642;2022-07-23T08:38:34;100208.28;;;27.81;49.06
48926;BME280;39838;59.938;30.642;2022-07-23T08:41:02;100225.88;;;27.84;48.72
48926;BME280;39838;59.938;30.642;2022-07-23T08:43:31;100221.19;;;27.87;48.52
48926;BME280;39838;59.938;30.642;2022-07-23T08:46:00;100216.44;;;27.91;48.22
48926;BME280;39838;59.938;30.642;2022-07-23T08:48:30;100201.41;;;27.90;48.23
48926;BME280;39838;59.938;30.642;2022-07-23T08:51:00;100225.97;;;28.17;48.24
48926;BME280;39838;59.938;30.642;2022-07-23T08:53:28;100217.00;;;28.29;47.88
48926;BME280;39838;59.938;30.642;2022-07-23T08:55:57;100219.94;;;28.38;47.76
48926;BME280;39838;59.938;30.642;2022-07-23T08:58:24;100220.94;;;28.48;47.74
48926;BME280;39838;59.938;30.642;2022-07-23T09:00:52;100206.97;;;28.55;47.90
48926;BME280;39838;59.938;30.642;2022-07-23T09:03:20;100214.34;;;28.63;47.70
48926;BME280;39838;59.938;30.642;2022-07-23T09:05:50;100206.00;;;28.68;47.06
48926;BME280;39838;59.938;30.642;2022-07-23T09:08:20;100209.72;;;28.76;46.92
48926;BME280;39838;59.938;30.642;2022-07-23T09:10:52;100214.31;;;28.86;47.11
48926;BME280;39838;59.938;30.642;2022-07-23T09:13:25;100204.03;;;28.92;46.44
48926;BME280;39838;59.938;30.642;2022-07-23T09:15:54;100205.34;;;29.09;45.86
48926;BME280;39838;59.938;30.642;2022-07-23T09:18:39;100201.88;;;29.29;45.88
48926;BME280;39838;59.938;30.642;2022-07-23T09:21:15;100188.31;;;29.42;45.06
48926;BME280;39838;59.938;30.642;2022-07-23T09:23:46;100184.50;;;29.56;44.70
48926;BME280;39838;59.938;30.642;2022-07-23T09:26:30;100186.59;;;29.73;44.19
48926;BME280;39838;59.938;30.642;2022-07-23T09:29:04;100192.34;;;29.69;44.17
48926;BME280;39838;59.938;30.642;2022-07-23T09:31:34;100192.78;;;29.74;44.39
48926;BME280;39838;59.938;30.642;2022-07-23T09:34:10;100199.47;;;29.79;44.71
48926;BME280;39838;59.938;30.642;2022-07-23T09:36:38;100183.91;;;29.94;44.48
48926;BME280;39838;59.938;30.642;2022-07-23T09:39:07;100192.53;;;29.98;44.28
48926;BME280;39838;59.938;30.642;2022-07-23T09:41:37;100194.91;;;30.12;44.24
48926;BME280;39838;59.938;30.642;2022-07-23T09:44:09;100185.09;;;30.22;43.58
48926;BME280;39838;59.938;30.642;2022-07-23T09:46:37;100186.69;;;30.34;43.36
48926;BME280;39838;59.938;30.642;2022-07-23T09:49:17;100175.06;;;30.55;43.19
48926;BME280;39838;59.938;30.642;2022-07-23T09:51:54;100168.16;;;30.62;42.16
48926;BME280;39838;59.938;30.642;2022-07-23T09:54:29;100168.94;;;30.74;41.76
48926;BME280;39838;59.938;30.642;2022-07-23T09:57:00;100172.34;;;30.76;41.72
48926;BME280;39838;59.938;30.642;2022-07-23T09:59:29;100167.56;;;30.79;41.71
48926;BME280;39838;59.938;30.642;2022-07-23T10:01:58;100174.06;;;30.86;41.62
48926;BME280;39838;59.938;30.642;2022-07-23T10:04:26;100162.78;;;30.92;41.06
48926;BME280;39838;59.938;30.642;2022-07-23T10:06:55;100139.91;;;30.79;40.65
48926;BME280;39838;59.938;30.642;2022-07-23T10:09:27;100164.63;;;30.92;40.15
48926;BME280;39838;59.938;30.642;2022-07-23T10:11:56;100170.81;;;30.92;40.50
48926;BME280;39838;59.938;30.642;2022-07-23T10:14:38;100159.25;;;30.82;40.74
48926;BME280;39838;59.938;30.642;2022-07-23T10:17:06;100156.50;;;30.63;40.94
48926;BME280;39838;59.938;30.642;2022-07-23T10:19:34;100161.78;;;30.43;40.67
48926;BME280;39838;59.938;30.642;2022-07-23T10:22:02;100147.69;;;30.11;41.44
48926;BME280;39838;59.938;30.642;2022-07-23T10:24:51;100153.22;;;30.19;41.75
48926;BME280;39838;59.938;30.642;2022-07-23T10:27:47;100156.91;;;30.28;41.69
48926;BME280;39838;59.938;30.642;2022-07-23T10:30:22;100143.72;;;30.45;40.76
48926;BME280;39838;59.938;30.642;2022-07-23T10:33:02;100139.22;;;30.46;40.25
48926;BME280;39838;59.938;30.642;2022-07-23T10:35:38;100145.41;;;30.47;40.75
48926;BME280;39838;59.938;30.642;2022-07-23T10:38:10;100138.91;;;30.39;41.14
48926;BME280;39838;59.938;30.642;2022-07-23T10:40:53;100144.56;;;30.36;41.43
48926;BME280;39838;59.938;30.642;2022-07-23T10:43:20;100139.81;;;30.50;41.07
48926;BME280;39838;59.938;30.642;2022-07-23T10:45:48;100138.41;;;30.55;41.29
48926;BME280;39838;59.938;30.642;2022-07-23T10:48:17;100138.66;;;30.52;40.63
48926;BME280;39838;59.938;30.642;2022-07-23T10:51:06;100142.34;;;30.51;40.91
48926;BME280;39838;59.938;30.642;2022-07-23T10:53:55;100145.88;;;30.61;40.05
48926;BME280;39838;59.938;30.642;2022-07-23T10:57:04;100152.97;;;30.62;39.48
48926;BME280;39838;59.938;30.642;2022-07-23T11:02:34;100157.03;;;30.57;40.05
48926;BME280;39838;59.938;30.642;2022-07-23T11:05:05;100165.31;;;30.44;40.29
48926;BME280;39838;59.938;30.642;2022-07-23T11:07:33;100152.75;;;30.44;39.98
48926;BME280;39838;59.938;30.642;2022-07-23T11:10:00;100160.19;;;30.31;39.75
48926;BME280;39838;59.938;30.642;2022-07-23T11:12:36;100158.25;;;30.12;39.66
48926;BME280;39838;59.938;30.642;2022-07-23T11:15:06;100155.50;;;30.03;39.48
48926;BME280;39838;59.938;30.642;2022-07-23T11:17:35;100140.34;;;29.92;39.91
48926;BME280;39838;59.938;30.642;2022-07-23T11:20:22;100147.69;;;29.90;39.91
48926;BME280;39838;59.938;30.642;2022-07-23T11:22:51;100150.28;;;30.01;40.34
48926;BME280;39838;59.938;30.642;2022-07-23T11:25:31;100141.84;;;30.06;40.38
48926;BME280;39838;59.938;30.642;2022-07-23T11:28:13;100146.88;;;30.20;40.31
48926;BME280;39838;59.938;30.642;2022-07-23T11:30:42;100137.81;;;30.42;39.42
48926;BME280;39838;59.938;30.642;2022-07-23T11:33:21;100142.19;;;30.53;39.61
48926;BME280;39838;59.938;30.642;2022-07-23T11:36:03;100144.28;;;30.80;39.27
48926;BME280;39838;59.938;30.642;2022-07-23T11:38:31;100129.63;;;31.03;38.87
48926;BME280;39838;59.938;30.642;2022-07-23T11:40:59;100145.75;;;31.32;38.34
48926;BME280;39838;59.938;30.642;2022-07-23T11:43:28;100136.00;;;31.50;38.44
48926;BME280;39838;59.938;30.642;2022-07-23T11:45:58;100123.84;;;31.27;38.41
48926;BME280;39838;59.938;30.642;2022-07-23T11:48:27;100137.09;;;30.99;38.05
48926;BME280;39838;59.938;30.642;2022-07-23T11:50:56;100150.69;;;30.58;40.08
48926;BME280;39838;59.938;30.642;2022-07-23T11:53:23;100177.50;;;30.06;41.67
48926;BME280;39838;59.938;30.642;2022-07-23T11:55:51;100170.78;;;29.49;43.29
48926;BME280;39838;59.938;30.642;2022-07-23T11:58:19;100184.44;;;28.92;44.61
48926;BME280;39838;59.938;30.642;2022-07-23T12:00:48;100190.81;;;28.46;45.73
48926;BME280;39838;59.938;30.642;2022-07-23T12:03:16;100179.47;;;28.09;47.16
48926;BME280;39838;59.938;30.642;2022-07-23T12:05:43;100186.81;;;27.83;47.79
48926;BME280;39838;59.938;30.642;2022-07-23T12:08:10;100186.47;;;27.52;48.72
48926;BME280;39838;59.938;30.642;2022-07-23T12:10:39;100182.63;;;27.32;49.57
48926;BME280;39838;59.938;30.642;2022-07-23T12:13:09;100177.81;;;27.13;49.50
48926;BME280;39838;59.938;30.642;2022-07-23T12:15:38;100169.44;;;26.94;49.79
48926;BME280;39838;59.938;30.642;2022-07-23T12:18:08;100165.16;;;26.67;50.37
48926;BME280;39838;59.938;30.642;2022-07-23T12:20:37;100182.97;;;26.54;51.37
48926;BME280;39838;59.938;30.642;2022-07-23T12:23:06;100195.34;;;26.30;52.18
48926;BME280;39838;59.938;30.642;2022-07-23T12:25:35;100206.53;;;26.09;53.09
48926;BME280;39838;59.938;30.642;2022-07-23T12:28:05;100179.66;;;25.87;53.31
48926;BME280;39838;59.938;30.642;2022-07-23T12:30:37;100192.25;;;25.85;54.25
48926;BME280;39838;59.938;30.642;2022-07-23T12:33:06;100180.41;;;25.76;54.96
48926;BME280;39838;59.938;30.642;2022-07-23T12:35:36;100203.28;;;25.79;54.66
48926;BME280;39838;59.938;30.642;2022-07-23T12:38:07;100200.13;;;25.59;55.05
48926;BME280;39838;59.938;30.642;2022-07-23T12:40:37;100191.91;;;25.37;56.03
48926;BME280;39838;59.938;30.642;2022-07-23T12:43:06;100196.75;;;25.30;57.37
48926;BME280;39838;59.938;30.642;2022-07-23T12:45:46;100193.09;;;25.19;58.41
48926;BME280;39838;59.938;30.642;2022-07-23T12:48:19;100191.28;;;25.19;58.85
48926;BME280;39838;59.938;30.642;2022-07-23T12:50:52;100188.09;;;25.41;59.19
48926;BME280;39838;59.938;30.642;2022-07-23T12:53:21;100171.19;;;25.82;58.91